sensor_id;sensor_type;location;lat;lon;timestamp;temperature;humidity
20915;DHT22;10617;52.032;5.298;2024-01-27T00:03:47;3.30;99.90
20915;DHT22;10617;52.032;5.298;2024-01-27T00:07:48;3.30;99.90
20915;DHT22;10617;52.032;5.298;2024-01-27T00:11:50;3.20;99.90
20915;DHT22;10617;52.032;5.298;2024-01-27T00:15:52;3.20;99.90
20915;DHT22;10617;52.032;5.298;2024-01-27T00:19:55;3.20;99.90
20915;DHT22;10617;52.032;5.298;2024-01-27T00:23:57;3.10;99.90
20915;DHT22;10617;52.032;5.298;2024-01-27T00:28:02;3.00;99.90
20915;DHT22;10617;52.032;5.298;2024-01-27T00:32:04;3.00;99.90
20915;DHT22;10617;52.032;5.298;2024-01-27T00:36:06;3.00;99.90
20915;DHT22;10617;52.032;5.298;2024-01-27T00:40:08;3.00;99.90
20915;DHT22;10617;52.032;5.298;2024-01-27T00:44:11;2.90;99.90
20915;DHT22;10617;52.032;5.298;2024-01-27T00:48:31;2.80;99.90
20915;DHT22;10617;52.032;5.298;2024-01-27T00:52:32;2.80;99.90
20915;DHT22;10617;52.032;5.298;2024-01-27T00:56:34;2.80;99.90
20915;DHT22;10617;52.032;5.298;2024-01-27T01:00:36;2.80;99.90
20915;DHT22;10617;52.032;5.298;2024-01-27T01:04:37;2.80;99.90
20915;DHT22;10617;52.032;5.298;2024-01-27T01:08:39;2.70;99.90
20915;DHT22;10617;52.032;5.298;2024-01-27T01:12:41;2.70;99.90
20915;DHT22;10617;52.032;5.298;2024-01-27T01:16:43;2.70;99.90
20915;DHT22;10617;52.032;5.298;2024-01-27T01:20:44;2.70;99.90
20915;DHT22;10617;52.032;5.298;2024-01-27T01:24:46;2.60;99.90
20915;DHT22;10617;52.032;5.298;2024-01-27T01:28:48;2.50;99.90
20915;DHT22;10617;52.032;5.298;2024-01-27T01:32:49;2.50;99.90
20915;DHT22;10617;52.032;5.298;2024-01-27T01:41:55;2.30;99.90
20915;DHT22;10617;52.032;5.298;2024-01-27T01:45:57;2.30;99.90
20915;DHT22;10617;52.032;5.298;2024-01-27T01:49:59;2.30;99.90
20915;DHT22;10617;52.032;5.298;2024-01-27T01:54:00;2.30;99.90
20915;DHT22;10617;52.032;5.298;2024-01-27T01:58:02;2.40;99.90
20915;DHT22;10617;52.032;5.298;2024-01-27T02:02:04;2.40;99.90
20915;DHT22;10617;52.032;5.298;2024-01-27T02:06:06;2.50;99.90
20915;DHT22;10617;52.032;5.298;2024-01-27T02:10:12;2.50;99.90
20915;DHT22;10617;52.032;5.298;2024-01-27T02:14:14;2.50;99.90
20915;DHT22;10617;52.032;5.298;2024-01-27T02:23:19;2.40;99.90
20915;DHT22;10617;52.032;5.298;2024-01-27T02:27:21;2.40;99.90
20915;DHT22;10617;52.032;5.298;2024-01-27T02:31:22;2.40;99.90
20915;DHT22;10617;52.032;5.298;2024-01-27T02:35:24;2.30;99.90
20915;DHT22;10617;52.032;5.298;2024-01-27T02:39:26;2.20;99.90
20915;DHT22;10617;52.032;5.298;2024-01-27T02:43:28;2.20;99.90
20915;DHT22;10617;52.032;5.298;2024-01-27T02:47:30;2.20;99.90
20915;DHT22;10617;52.032;5.298;2024-01-27T02:51:31;2.10;99.90
20915;DHT22;10617;52.032;5.298;2024-01-27T02:55:33;2.00;99.90
20915;DHT22;10617;52.032;5.298;2024-01-27T02:59:35;1.90;99.90
20915;DHT22;10617;52.032;5.298;2024-01-27T03:03:36;1.80;99.90
20915;DHT22;10617;52.032;5.298;2024-01-27T03:07:38;1.70;99.90
20915;DHT22;10617;52.032;5.298;2024-01-27T03:11:40;1.60;99.90
20915;DHT22;10617;52.032;5.298;2024-01-27T03:15:42;1.60;99.90
20915;DHT22;10617;52.032;5.298;2024-01-27T03:19:44;1.50;99.90
20915;DHT22;10617;52.032;5.298;2024-01-27T03:23:49;1.40;99.90
20915;DHT22;10617;52.032;5.298;2024-01-27T03:27:51;1.30;99.90
20915;DHT22;10617;52.032;5.298;2024-01-27T03:31:53;1.30;99.90
20915;DHT22;10617;52.032;5.298;2024-01-27T03:35:55;1.20;99.90
20915;DHT22;10617;52.032;5.298;2024-01-27T03:39:57;1.20;99.90
20915;DHT22;10617;52.032;5.298;2024-01-27T03:43:58;1.10;99.90
20915;DHT22;10617;52.032;5.298;2024-01-27T03:48:00;1.00;99.90
20915;DHT22;10617;52.032;5.298;2024-01-27T03:52:02;1.00;99.90
20915;DHT22;10617;52.032;5.298;2024-01-27T03:56:04;1.00;99.90
20915;DHT22;10617;52.032;5.298;2024-01-27T04:00:06;1.00;99.90
20915;DHT22;10617;52.032;5.298;2024-01-27T04:04:08;1.00;99.90
20915;DHT22;10617;52.032;5.298;2024-01-27T04:08:10;0.90;99.90
20915;DHT22;10617;52.032;5.298;2024-01-27T04:12:11;0.90;99.90
20915;DHT22;10617;52.032;5.298;2024-01-27T04:21:17;0.90;99.90
20915;DHT22;10617;52.032;5.298;2024-01-27T04:25:18;0.80;99.90
20915;DHT22;10617;52.032;5.298;2024-01-27T04:29:20;0.80;99.90
20915;DHT22;10617;52.032;5.298;2024-01-27T04:33:22;0.80;99.90
20915;DHT22;10617;52.032;5.298;2024-01-27T04:37:23;0.80;99.90
20915;DHT22;10617;52.032;5.298;2024-01-27T04:41:25;0.70;99.90
20915;DHT22;10617;52.032;5.298;2024-01-27T04:45:27;0.70;99.90
20915;DHT22;10617;52.032;5.298;2024-01-27T04:49:28;0.70;99.90
20915;DHT22;10617;52.032;5.298;2024-01-27T04:53:30;0.70;99.90
20915;DHT22;10617;52.032;5.298;2024-01-27T04:57:32;0.70;99.90
20915;DHT22;10617;52.032;5.298;2024-01-27T05:01:34;0.60;99.90
20915;DHT22;10617;52.032;5.298;2024-01-27T05:05:36;0.60;99.90
20915;DHT22;10617;52.032;5.298;2024-01-27T05:09:39;0.60;99.90
20915;DHT22;10617;52.032;5.298;2024-01-27T05:13:41;0.60;99.90
20915;DHT22;10617;52.032;5.298;2024-01-27T05:17:43;0.50;99.90
20915;DHT22;10617;52.032;5.298;2024-01-27T05:21:44;0.50;99.90
20915;DHT22;10617;52.032;5.298;2024-01-27T05:25:46;0.50;99.90
20915;DHT22;10617;52.032;5.298;2024-01-27T05:29:48;0.50;99.90
20915;DHT22;10617;52.032;5.298;2024-01-27T05:33:49;0.50;99.90
20915;DHT22;10617;52.032;5.298;2024-01-27T05:37:51;0.50;99.90
20915;DHT22;10617;52.032;5.298;2024-01-27T05:41:53;0.40;99.90
20915;DHT22;10617;52.032;5.298;2024-01-27T05:45:55;0.40;99.90
20915;DHT22;10617;52.032;5.298;2024-01-27T05:49:57;0.40;99.90
20915;DHT22;10617;52.032;5.298;2024-01-27T05:53:59;0.40;99.90
20915;DHT22;10617;52.032;5.298;2024-01-27T05:58:01;0.40;99.90
20915;DHT22;10617;52.032;5.298;2024-01-27T06:02:03;0.40;99.90
20915;DHT22;10617;52.032;5.298;2024-01-27T06:06:04;0.30;99.90
20915;DHT22;10617;52.032;5.298;2024-01-27T06:10:07;0.40;99.90
20915;DHT22;10617;52.032;5.298;2024-01-27T06:14:09;0.30;99.90
20915;DHT22;10617;52.032;5.298;2024-01-27T06:18:11;0.30;99.90
20915;DHT22;10617;52.032;5.298;2024-01-27T06:22:13;0.30;99.90
20915;DHT22;10617;52.032;5.298;2024-01-27T06:26:15;0.20;99.90
20915;DHT22;10617;52.032;5.298;2024-01-27T06:30:16;0.20;99.90
20915;DHT22;10617;52.032;5.298;2024-01-27T06:34:19;0.20;99.90
20915;DHT22;10617;52.032;5.298;2024-01-27T06:38:22;0.20;99.90
20915;DHT22;10617;52.032;5.298;2024-01-27T06:42:23;0.20;99.90
20915;DHT22;10617;52.032;5.298;2024-01-27T06:46:25;0.20;99.90
20915;DHT22;10617;52.032;5.298;2024-01-27T06:50:27;0.20;99.90
20915;DHT22;10617;52.032;5.298;2024-01-27T06:54:29;0.20;99.90
20915;DHT22;10617;52.032;5.298;2024-01-27T06:58:30;0.10;99.90
20915;DHT22;10617;52.032;5.298;2024-01-27T07:02:32;0.10;99.90
20915;DHT22;10617;52.032;5.298;2024-01-27T07:06:34;0.10;99.90
20915;DHT22;10617;52.032;5.298;2024-01-27T07:10:36;0.00;99.90
20915;DHT22;10617;52.032;5.298;2024-01-27T07:14:37;0.00;99.90
20915;DHT22;10617;52.032;5.298;2024-01-27T07:18:39;0.00;99.90
20915;DHT22;10617;52.032;5.298;2024-01-27T07:22:41;0.00;99.90
20915;DHT22;10617;52.032;5.298;2024-01-27T07:26:43;0.00;99.90
20915;DHT22;10617;52.032;5.298;2024-01-27T07:30:45;-0.10;99.90
20915;DHT22;10617;52.032;5.298;2024-01-27T07:34:46;0.00;99.90
20915;DHT22;10617;52.032;5.298;2024-01-27T07:38:48;-0.10;99.90
20915;DHT22;10617;52.032;5.298;2024-01-27T07:42:50;0.00;99.90
20915;DHT22;10617;52.032;5.298;2024-01-27T07:46:51;0.00;99.90
20915;DHT22;10617;52.032;5.298;2024-01-27T07:50:53;0.00;99.90
20915;DHT22;10617;52.032;5.298;2024-01-27T07:54:55;0.00;99.90
20915;DHT22;10617;52.032;5.298;2024-01-27T07:58:57;0.10;99.90
20915;DHT22;10617;52.032;5.298;2024-01-27T08:02:59;0.10;99.90
20915;DHT22;10617;52.032;5.298;2024-01-27T08:07:00;0.10;99.90
20915;DHT22;10617;52.032;5.298;2024-01-27T08:11:07;0.20;99.90
20915;DHT22;10617;52.032;5.298;2024-01-27T08:15:09;0.20;99.90
20915;DHT22;10617;52.032;5.298;2024-01-27T08:19:11;0.30;99.90
20915;DHT22;10617;52.032;5.298;2024-01-27T08:23:12;0.30;99.90
20915;DHT22;10617;52.032;5.298;2024-01-27T08:27:14;0.40;99.90
20915;DHT22;10617;52.032;5.298;2024-01-27T08:31:16;0.50;99.90
20915;DHT22;10617;52.032;5.298;2024-01-27T08:35:18;0.60;99.90
20915;DHT22;10617;52.032;5.298;2024-01-27T08:39:20;0.70;99.90
20915;DHT22;10617;52.032;5.298;2024-01-27T08:43:21;0.80;99.90
20915;DHT22;10617;52.032;5.298;2024-01-27T08:47:23;0.90;99.90
20915;DHT22;10617;52.032;5.298;2024-01-27T08:51:25;1.00;99.90
20915;DHT22;10617;52.032;5.298;2024-01-27T08:55:26;1.10;99.90
20915;DHT22;10617;52.032;5.298;2024-01-27T08:59:28;1.20;99.90
20915;DHT22;10617;52.032;5.298;2024-01-27T09:03:30;1.30;99.90
20915;DHT22;10617;52.032;5.298;2024-01-27T09:07:33;1.40;99.90
20915;DHT22;10617;52.032;5.298;2024-01-27T09:11:47;1.70;99.90
20915;DHT22;10617;52.032;5.298;2024-01-27T09:15:50;1.90;99.90
20915;DHT22;10617;52.032;5.298;2024-01-27T09:19:52;2.20;99.90
20915;DHT22;10617;52.032;5.298;2024-01-27T09:23:54;2.40;99.90
20915;DHT22;10617;52.032;5.298;2024-01-27T09:27:56;2.80;99.90
20915;DHT22;10617;52.032;5.298;2024-01-27T09:31:58;3.20;99.90
20915;DHT22;10617;52.032;5.298;2024-01-27T09:35:59;3.70;99.90
20915;DHT22;10617;52.032;5.298;2024-01-27T09:40:01;4.20;99.90
20915;DHT22;10617;52.032;5.298;2024-01-27T09:44:04;4.50;99.90
20915;DHT22;10617;52.032;5.298;2024-01-27T09:48:06;4.80;99.90
20915;DHT22;10617;52.032;5.298;2024-01-27T09:52:09;4.90;99.90
20915;DHT22;10617;52.032;5.298;2024-01-27T09:56:12;4.90;99.90
20915;DHT22;10617;52.032;5.298;2024-01-27T10:05:23;5.00;99.90
20915;DHT22;10617;52.032;5.298;2024-01-27T10:09:25;5.20;99.90
20915;DHT22;10617;52.032;5.298;2024-01-27T10:13:27;5.30;99.90
20915;DHT22;10617;52.032;5.298;2024-01-27T10:17:28;5.40;99.90
20915;DHT22;10617;52.032;5.298;2024-01-27T10:21:36;5.60;99.90
20915;DHT22;10617;52.032;5.298;2024-01-27T10:25:38;5.80;99.90
20915;DHT22;10617;52.032;5.298;2024-01-27T10:29:40;5.90;99.90
20915;DHT22;10617;52.032;5.298;2024-01-27T10:33:50;6.00;99.90
20915;DHT22;10617;52.032;5.298;2024-01-27T10:37:53;6.10;99.90
20915;DHT22;10617;52.032;5.298;2024-01-27T10:41:59;6.20;99.90
20915;DHT22;10617;52.032;5.298;2024-01-27T10:46:05;6.30;99.90
20915;DHT22;10617;52.032;5.298;2024-01-27T10:50:08;6.50;99.90
20915;DHT22;10617;52.032;5.298;2024-01-27T10:54:10;6.70;99.90
20915;DHT22;10617;52.032;5.298;2024-01-27T10:58:15;7.10;99.90
20915;DHT22;10617;52.032;5.298;2024-01-27T11:02:17;7.40;99.90
20915;DHT22;10617;52.032;5.298;2024-01-27T11:06:21;7.70;99.90
20915;DHT22;10617;52.032;5.298;2024-01-27T11:10:23;8.10;99.90
20915;DHT22;10617;52.032;5.298;2024-01-27T11:14:25;8.70;99.90
20915;DHT22;10617;52.032;5.298;2024-01-27T11:18:27;9.20;99.90
20915;DHT22;10617;52.032;5.298;2024-01-27T11:22:29;9.60;99.90
20915;DHT22;10617;52.032;5.298;2024-01-27T11:26:32;10.00;99.90
20915;DHT22;10617;52.032;5.298;2024-01-27T11:30:35;10.30;99.90
20915;DHT22;10617;52.032;5.298;2024-01-27T11:34:42;10.60;99.90
20915;DHT22;10617;52.032;5.298;2024-01-27T11:38:44;10.90;99.90
20915;DHT22;10617;52.032;5.298;2024-01-27T11:46:57;11.10;99.90
20915;DHT22;10617;52.032;5.298;2024-01-27T11:51:05;11.10;99.90
20915;DHT22;10617;52.032;5.298;2024-01-27T11:55:07;11.30;99.90
20915;DHT22;10617;52.032;5.298;2024-01-27T11:59:09;11.30;99.90
20915;DHT22;10617;52.032;5.298;2024-01-27T12:03:11;11.40;99.90
20915;DHT22;10617;52.032;5.298;2024-01-27T12:07:14;11.60;99.90
20915;DHT22;10617;52.032;5.298;2024-01-27T12:11:16;11.70;99.90
20915;DHT22;10617;52.032;5.298;2024-01-27T12:15:21;12.00;99.90
20915;DHT22;10617;52.032;5.298;2024-01-27T12:19:23;12.20;99.90
20915;DHT22;10617;52.032;5.298;2024-01-27T12:23:25;12.30;99.90
20915;DHT22;10617;52.032;5.298;2024-01-27T12:27:26;12.10;99.90
20915;DHT22;10617;52.032;5.298;2024-01-27T12:31:28;11.80;99.90
20915;DHT22;10617;52.032;5.298;2024-01-27T12:35:31;11.70;99.90
20915;DHT22;10617;52.032;5.298;2024-01-27T12:39:32;12.00;99.90
20915;DHT22;10617;52.032;5.298;2024-01-27T12:43:34;12.00;99.90
20915;DHT22;10617;52.032;5.298;2024-01-27T12:47:36;12.10;99.90
20915;DHT22;10617;52.032;5.298;2024-01-27T12:51:38;12.00;99.90
20915;DHT22;10617;52.032;5.298;2024-01-27T12:55:43;11.80;99.90
20915;DHT22;10617;52.032;5.298;2024-01-27T12:59:45;11.30;99.90
20915;DHT22;10617;52.032;5.298;2024-01-27T13:03:47;11.10;99.90
20915;DHT22;10617;52.032;5.298;2024-01-27T13:07:49;11.20;99.90
20915;DHT22;10617;52.032;5.298;2024-01-27T13:11:50;11.40;99.90
20915;DHT22;10617;52.032;5.298;2024-01-27T13:15:52;11.50;99.90
20915;DHT22;10617;52.032;5.298;2024-01-27T13:19:54;11.60;99.90
20915;DHT22;10617;52.032;5.298;2024-01-27T13:23:56;11.60;99.90
20915;DHT22;10617;52.032;5.298;2024-01-27T13:27:58;11.40;99.90
20915;DHT22;10617;52.032;5.298;2024-01-27T13:31:59;11.20;99.90
20915;DHT22;10617;52.032;5.298;2024-01-27T13:36:03;10.90;99.90
20915;DHT22;10617;52.032;5.298;2024-01-27T13:40:05;10.60;99.90
20915;DHT22;10617;52.032;5.298;2024-01-27T13:44:09;10.30;99.90
20915;DHT22;10617;52.032;5.298;2024-01-27T13:48:11;10.10;99.90
20915;DHT22;10617;52.032;5.298;2024-01-27T13:52:12;9.90;99.90
20915;DHT22;10617;52.032;5.298;2024-01-27T13:56:14;9.80;99.90
20915;DHT22;10617;52.032;5.298;2024-01-27T14:00:16;9.60;99.90
20915;DHT22;10617;52.032;5.298;2024-01-27T14:04:18;9.40;99.90
20915;DHT22;10617;52.032;5.298;2024-01-27T14:08:20;9.30;99.90
20915;DHT22;10617;52.032;5.298;2024-01-27T14:12:21;9.20;99.90
20915;DHT22;10617;52.032;5.298;2024-01-27T14:16:23;9.20;99.90
20915;DHT22;10617;52.032;5.298;2024-01-27T14:20:25;9.30;99.90
20915;DHT22;10617;52.032;5.298;2024-01-27T14:24:30;9.30;99.90
20915;DHT22;10617;52.032;5.298;2024-01-27T14:28:34;9.30;99.90
20915;DHT22;10617;52.032;5.298;2024-01-27T14:32:36;9.20;99.90
20915;DHT22;10617;52.032;5.298;2024-01-27T14:36:38;9.20;99.90
20915;DHT22;10617;52.032;5.298;2024-01-27T14:40:40;9.10;99.90
20915;DHT22;10617;52.032;5.298;2024-01-27T14:44:42;9.00;99.90
20915;DHT22;10617;52.032;5.298;2024-01-27T14:48:44;9.00;99.90
20915;DHT22;10617;52.032;5.298;2024-01-27T14:52:47;9.00;99.90
20915;DHT22;10617;52.032;5.298;2024-01-27T14:56:48;9.10;99.90
20915;DHT22;10617;52.032;5.298;2024-01-27T15:00:50;9.20;99.90
20915;DHT22;10617;52.032;5.298;2024-01-27T15:04:55;9.30;99.90
20915;DHT22;10617;52.032;5.298;2024-01-27T15:08:57;9.30;99.90
20915;DHT22;10617;52.032;5.298;2024-01-27T15:12:58;9.40;99.90
20915;DHT22;10617;52.032;5.298;2024-01-27T15:17:01;9.60;99.90
20915;DHT22;10617;52.032;5.298;2024-01-27T15:21:03;9.60;99.90
20915;DHT22;10617;52.032;5.298;2024-01-27T15:25:05;9.60;99.90
20915;DHT22;10617;52.032;5.298;2024-01-27T15:29:07;9.70;99.90
20915;DHT22;10617;52.032;5.298;2024-01-27T15:33:08;9.70;99.90
20915;DHT22;10617;52.032;5.298;2024-01-27T15:37:10;9.80;99.90
20915;DHT22;10617;52.032;5.298;2024-01-27T15:41:12;9.80;99.90
20915;DHT22;10617;52.032;5.298;2024-01-27T15:45:14;9.60;99.90
20915;DHT22;10617;52.032;5.298;2024-01-27T15:49:16;9.40;99.90
20915;DHT22;10617;52.032;5.298;2024-01-27T15:53:20;9.10;99.90
20915;DHT22;10617;52.032;5.298;2024-01-27T15:57:21;9.00;99.90
20915;DHT22;10617;52.032;5.298;2024-01-27T16:01:23;8.80;99.90
20915;DHT22;10617;52.032;5.298;2024-01-27T16:05:25;8.70;99.90
20915;DHT22;10617;52.032;5.298;2024-01-27T16:09:27;8.60;99.90
20915;DHT22;10617;52.032;5.298;2024-01-27T16:18:34;8.30;99.90
20915;DHT22;10617;52.032;5.298;2024-01-27T16:22:36;8.10;99.90
20915;DHT22;10617;52.032;5.298;2024-01-27T16:26:38;8.00;99.90
20915;DHT22;10617;52.032;5.298;2024-01-27T16:30:40;7.90;99.90
20915;DHT22;10617;52.032;5.298;2024-01-27T16:34:42;7.70;99.90
20915;DHT22;10617;52.032;5.298;2024-01-27T16:38:44;7.60;99.90
20915;DHT22;10617;52.032;5.298;2024-01-27T16:42:46;7.50;99.90
20915;DHT22;10617;52.032;5.298;2024-01-27T16:46:48;7.40;99.90
20915;DHT22;10617;52.032;5.298;2024-01-27T16:50:49;7.20;99.90
20915;DHT22;10617;52.032;5.298;2024-01-27T16:54:51;7.10;99.90
20915;DHT22;10617;52.032;5.298;2024-01-27T16:58:52;7.00;99.90
20915;DHT22;10617;52.032;5.298;2024-01-27T17:02:54;7.00;99.90
20915;DHT22;10617;52.032;5.298;2024-01-27T17:06:56;6.90;99.90
20915;DHT22;10617;52.032;5.298;2024-01-27T17:10:58;6.80;99.90
20915;DHT22;10617;52.032;5.298;2024-01-27T17:15:00;6.70;99.90
20915;DHT22;10617;52.032;5.298;2024-01-27T17:19:01;6.60;99.90
20915;DHT22;10617;52.032;5.298;2024-01-27T17:23:04;6.50;99.90
20915;DHT22;10617;52.032;5.298;2024-01-27T17:27:05;6.40;99.90
20915;DHT22;10617;52.032;5.298;2024-01-27T17:31:09;6.30;99.90
20915;DHT22;10617;52.032;5.298;2024-01-27T17:35:11;6.30;99.90
20915;DHT22;10617;52.032;5.298;2024-01-27T17:39:13;6.20;99.90
20915;DHT22;10617;52.032;5.298;2024-01-27T17:43:15;6.10;99.90
20915;DHT22;10617;52.032;5.298;2024-01-27T17:47:17;6.00;99.90
20915;DHT22;10617;52.032;5.298;2024-01-27T17:51:19;5.90;99.90
20915;DHT22;10617;52.032;5.298;2024-01-27T18:00:30;5.70;99.90
20915;DHT22;10617;52.032;5.298;2024-01-27T18:04:32;5.70;99.90
20915;DHT22;10617;52.032;5.298;2024-01-27T18:08:34;5.60;99.90
20915;DHT22;10617;52.032;5.298;2024-01-27T18:12:36;5.50;99.90
20915;DHT22;10617;52.032;5.298;2024-01-27T18:21:39;5.30;99.90
20915;DHT22;10617;52.032;5.298;2024-01-27T18:25:41;5.20;99.90
20915;DHT22;10617;52.032;5.298;2024-01-27T18:29:43;5.10;99.90
20915;DHT22;10617;52.032;5.298;2024-01-27T18:33:45;5.00;99.90
20915;DHT22;10617;52.032;5.298;2024-01-27T18:37:50;4.90;99.90
20915;DHT22;10617;52.032;5.298;2024-01-27T18:41:52;4.90;99.90
20915;DHT22;10617;52.032;5.298;2024-01-27T18:45:53;4.80;99.90
20915;DHT22;10617;52.032;5.298;2024-01-27T18:55:01;4.60;99.90
20915;DHT22;10617;52.032;5.298;2024-01-27T18:59:03;4.50;99.90
20915;DHT22;10617;52.032;5.298;2024-01-27T19:03:04;4.50;99.90
20915;DHT22;10617;52.032;5.298;2024-01-27T19:07:08;4.50;99.90
20915;DHT22;10617;52.032;5.298;2024-01-27T19:11:10;4.40;99.90
20915;DHT22;10617;52.032;5.298;2024-01-27T19:15:12;4.40;99.90
20915;DHT22;10617;52.032;5.298;2024-01-27T19:19:26;4.30;99.90
20915;DHT22;10617;52.032;5.298;2024-01-27T19:27:49;4.20;99.90
20915;DHT22;10617;52.032;5.298;2024-01-27T19:31:51;4.20;99.90
20915;DHT22;10617;52.032;5.298;2024-01-27T19:35:53;4.20;99.90
20915;DHT22;10617;52.032;5.298;2024-01-27T19:39:55;4.20;99.90
20915;DHT22;10617;52.032;5.298;2024-01-27T19:43:57;4.20;99.90
20915;DHT22;10617;52.032;5.298;2024-01-27T19:47:58;4.20;99.90
20915;DHT22;10617;52.032;5.298;2024-01-27T19:52:00;4.10;99.90
20915;DHT22;10617;52.032;5.298;2024-01-27T19:56:02;4.00;99.90
20915;DHT22;10617;52.032;5.298;2024-01-27T20:00:07;3.90;99.90
20915;DHT22;10617;52.032;5.298;2024-01-27T20:04:09;3.80;99.90
20915;DHT22;10617;52.032;5.298;2024-01-27T20:08:11;3.80;99.90
20915;DHT22;10617;52.032;5.298;2024-01-27T20:12:13;3.80;99.90
20915;DHT22;10617;52.032;5.298;2024-01-27T20:16:15;3.80;99.90
20915;DHT22;10617;52.032;5.298;2024-01-27T20:20:17;3.80;99.90
20915;DHT22;10617;52.032;5.298;2024-01-27T20:24:18;3.80;99.90
20915;DHT22;10617;52.032;5.298;2024-01-27T20:28:21;3.70;99.90
20915;DHT22;10617;52.032;5.298;2024-01-27T20:32:23;3.60;99.90
20915;DHT22;10617;52.032;5.298;2024-01-27T20:36:37;3.50;99.90
20915;DHT22;10617;52.032;5.298;2024-01-27T20:40:39;3.40;99.90
20915;DHT22;10617;52.032;5.298;2024-01-27T20:44:41;3.40;99.90
20915;DHT22;10617;52.032;5.298;2024-01-27T20:48:43;3.30;99.90
20915;DHT22;10617;52.032;5.298;2024-01-27T20:52:45;3.30;99.90
20915;DHT22;10617;52.032;5.298;2024-01-27T20:56:47;3.30;99.90
20915;DHT22;10617;52.032;5.298;2024-01-27T21:00:48;3.30;99.90
20915;DHT22;10617;52.032;5.298;2024-01-27T21:04:50;3.20;99.90
20915;DHT22;10617;52.032;5.298;2024-01-27T21:08:52;3.10;99.90
20915;DHT22;10617;52.032;5.298;2024-01-27T21:12:54;3.10;99.90
20915;DHT22;10617;52.032;5.298;2024-01-27T21:16:56;3.00;99.90
20915;DHT22;10617;52.032;5.298;2024-01-27T21:20:57;3.00;99.90
20915;DHT22;10617;52.032;5.298;2024-01-27T21:25:00;2.90;99.90
20915;DHT22;10617;52.032;5.298;2024-01-27T21:34:05;2.70;99.90
20915;DHT22;10617;52.032;5.298;2024-01-27T21:38:07;2.70;99.90
20915;DHT22;10617;52.032;5.298;2024-01-27T21:42:09;2.70;99.90
20915;DHT22;10617;52.032;5.298;2024-01-27T21:46:11;2.60;99.90
20915;DHT22;10617;52.032;5.298;2024-01-27T21:50:13;2.60;99.90
20915;DHT22;10617;52.032;5.298;2024-01-27T21:54:15;2.50;99.90
20915;DHT22;10617;52.032;5.298;2024-01-27T21:58:16;2.50;99.90
20915;DHT22;10617;52.032;5.298;2024-01-27T22:02:18;2.40;99.90
20915;DHT22;10617;52.032;5.298;2024-01-27T22:11:23;2.40;99.90
20915;DHT22;10617;52.032;5.298;2024-01-27T22:25:32;2.30;99.90
20915;DHT22;10617;52.032;5.298;2024-01-27T22:29:36;2.30;99.90
20915;DHT22;10617;52.032;5.298;2024-01-27T22:33:37;2.30;99.90
20915;DHT22;10617;52.032;5.298;2024-01-27T22:37:39;2.30;99.90
20915;DHT22;10617;52.032;5.298;2024-01-27T22:41:41;2.20;99.90
20915;DHT22;10617;52.032;5.298;2024-01-27T22:45:43;2.20;99.90
20915;DHT22;10617;52.032;5.298;2024-01-27T22:49:44;2.20;99.90
20915;DHT22;10617;52.032;5.298;2024-01-27T22:53:46;2.20;99.90
20915;DHT22;10617;52.032;5.298;2024-01-27T22:57:48;2.10;99.90
20915;DHT22;10617;52.032;5.298;2024-01-27T23:01:50;2.10;99.90
20915;DHT22;10617;52.032;5.298;2024-01-27T23:05:51;2.10;99.90
20915;DHT22;10617;52.032;5.298;2024-01-27T23:09:55;2.00;99.90
20915;DHT22;10617;52.032;5.298;2024-01-27T23:13:56;2.00;99.90
20915;DHT22;10617;52.032;5.298;2024-01-27T23:17:58;2.00;99.90
20915;DHT22;10617;52.032;5.298;2024-01-27T23:22:02;2.10;99.90
20915;DHT22;10617;52.032;5.298;2024-01-27T23:26:03;2.20;99.90
20915;DHT22;10617;52.032;5.298;2024-01-27T23:30:05;2.30;99.90
20915;DHT22;10617;52.032;5.298;2024-01-27T23:34:09;2.30;99.90
20915;DHT22;10617;52.032;5.298;2024-01-27T23:38:12;2.40;99.90
20915;DHT22;10617;52.032;5.298;2024-01-27T23:42:13;2.30;99.90
20915;DHT22;10617;52.032;5.298;2024-01-27T23:46:15;2.30;99.90
20915;DHT22;10617;52.032;5.298;2024-01-27T23:50:17;2.30;99.90
20915;DHT22;10617;52.032;5.298;2024-01-27T23:54:20;2.30;99.90
20915;DHT22;10617;52.032;5.298;2024-01-27T23:58:22;2.20;99.90
